createdAt,value
2019-04-05T00:02:53.272Z,2.60
2019-04-05T00:06:57.294Z,3.07
2019-04-05T00:11:01.334Z,2.90
2019-04-05T00:15:15.276Z,2.80
2019-04-05T00:19:11.343Z,3.13
2019-04-05T00:23:15.367Z,2.93
2019-04-05T00:27:19.455Z,3.50
2019-04-05T00:31:24.546Z,3.97
2019-04-05T00:35:28.527Z,3.97
2019-04-05T00:39:32.496Z,3.50
2019-04-05T00:43:36.568Z,3.40
2019-04-05T00:47:40.722Z,3.23
2019-04-05T00:51:44.916Z,3.07
2019-04-05T00:55:48.971Z,3.13
2019-04-05T00:59:52.902Z,3.13
2019-04-05T01:03:56.881Z,3.60
2019-04-05T01:08:01.219Z,3.17
2019-04-05T01:12:06.702Z,3.50
2019-04-05T01:16:11.091Z,3.50
2019-04-05T01:20:15.148Z,3.53
2019-04-05T01:24:19.938Z,3.17
2019-04-05T01:28:24.212Z,3.23
2019-04-05T01:32:28.326Z,3.33
2019-04-05T01:36:51.487Z,3.03
2019-04-05T01:40:56.866Z,3.73
2019-04-05T01:45:01.015Z,3.63
2019-04-05T01:49:05.050Z,3.13
2019-04-05T01:53:09.076Z,3.30
2019-04-05T01:57:13.259Z,3.47
2019-04-05T02:01:17.322Z,3.20
2019-04-05T02:05:22.889Z,3.30
2019-04-05T02:09:27.173Z,3.57
2019-04-05T02:13:31.177Z,4.03
2019-04-05T02:17:36.093Z,4.07
2019-04-05T02:21:40.267Z,4.50
2019-04-05T02:25:44.266Z,4.57
2019-04-05T02:29:48.257Z,4.17
2019-04-05T02:33:52.395Z,4.40
2019-04-05T02:37:56.688Z,4.43
2019-04-05T02:42:00.747Z,4.97
2019-04-05T02:46:04.990Z,4.70
2019-04-05T02:50:09.611Z,4.83
2019-04-05T02:54:14.263Z,4.63
2019-04-05T02:58:18.771Z,4.17
2019-04-05T03:02:22.808Z,4.43
2019-04-05T03:06:27.138Z,4.67
2019-04-05T03:10:50.524Z,4.43
2019-04-05T03:14:55.272Z,4.77
2019-04-05T03:19:03.627Z,4.47
2019-04-05T03:23:07.991Z,3.93
2019-04-05T03:27:15.231Z,4.87
2019-04-05T03:31:24.566Z,4.93
2019-04-05T03:35:25.336Z,3.77
2019-04-05T03:39:30.235Z,3.97
2019-04-05T03:43:34.653Z,4.00
2019-04-05T03:47:38.555Z,3.80
2019-04-05T03:51:42.762Z,3.87
2019-04-05T03:55:46.840Z,4.17
2019-04-05T04:04:14.781Z,4.77
2019-04-05T04:08:21.693Z,4.53
2019-04-05T04:12:24.822Z,4.67
2019-04-05T04:16:29.006Z,4.20
2019-04-05T04:20:36.902Z,4.50
2019-04-05T04:24:40.980Z,4.47
2019-04-05T04:28:45.211Z,4.17
2019-04-05T04:32:49.375Z,5.40
2019-04-05T04:36:53.491Z,4.43
2019-04-05T04:40:57.810Z,4.50
2019-04-05T04:45:12.050Z,4.60
2019-04-05T04:49:08.237Z,4.63
2019-04-05T04:53:12.478Z,4.10
2019-04-05T04:57:16.683Z,4.17
2019-04-05T05:01:20.753Z,4.93
2019-04-05T05:05:25.865Z,4.50
2019-04-05T05:09:30.066Z,4.63
2019-04-05T05:13:34.134Z,4.73
2019-04-05T05:17:39.029Z,4.30
2019-04-05T05:21:43.445Z,5.20
2019-04-05T05:25:47.656Z,5.67
2019-04-05T05:29:52.195Z,5.70
2019-04-05T05:33:56.274Z,5.27
2019-04-05T05:38:00.440Z,5.13
2019-04-05T05:42:04.719Z,4.93
2019-04-05T05:46:08.798Z,5.43
2019-04-05T05:50:12.973Z,7.00
2019-04-05T05:54:17.046Z,9.17
2019-04-05T05:58:21.070Z,10.77
2019-04-05T06:02:25.122Z,9.20
2019-04-05T06:06:29.207Z,7.50
2019-04-05T06:10:33.198Z,5.50
2019-04-05T06:14:38.119Z,5.47
2019-04-05T06:18:42.245Z,6.47
2019-04-05T06:22:47.659Z,6.70
2019-04-05T06:26:51.919Z,5.33
2019-04-05T06:30:55.963Z,5.67
2019-04-05T06:35:00.050Z,4.53
2019-04-05T06:39:06.051Z,4.73
2019-04-05T06:43:10.019Z,4.60
2019-04-05T06:47:14.042Z,4.87
2019-04-05T06:51:18.071Z,4.77
2019-04-05T06:55:22.175Z,4.67
2019-04-05T06:59:26.607Z,5.20
2019-04-05T07:03:30.673Z,5.27
2019-04-05T07:07:34.742Z,5.03
2019-04-05T07:11:39.019Z,4.90
2019-04-05T07:15:43.823Z,5.80
2019-04-05T07:19:48.015Z,6.60
2019-04-05T07:23:52.221Z,6.07
2019-04-05T07:27:56.361Z,5.33
2019-04-05T07:32:00.414Z,6.10
2019-04-05T07:36:04.391Z,6.30
2019-04-05T07:40:08.457Z,6.43
2019-04-05T07:44:13.823Z,5.70
2019-04-05T07:48:17.664Z,6.20
2019-04-05T07:52:21.739Z,5.47
2019-04-05T07:56:25.827Z,5.33
2019-04-05T08:00:40.735Z,5.33
2019-04-05T08:04:44.983Z,5.00
2019-04-05T08:09:08.289Z,4.93
2019-04-05T08:13:13.217Z,5.17
2019-04-05T08:17:17.257Z,5.03
2019-04-05T08:21:21.238Z,3.93
2019-04-05T08:25:25.358Z,5.13
2019-04-05T08:29:29.358Z,4.53
2019-04-05T08:33:36.206Z,4.50
2019-04-05T08:37:39.378Z,4.43
2019-04-05T08:41:43.557Z,4.63
2019-04-05T08:45:47.682Z,4.07
2019-04-05T08:49:51.668Z,5.23
2019-04-05T08:53:55.900Z,5.27
2019-04-05T08:58:00.105Z,4.47
2019-04-05T09:02:05.371Z,3.90
2019-04-05T09:06:09.443Z,4.30
2019-04-05T09:10:13.687Z,4.77
2019-04-05T09:14:20.721Z,4.20
2019-04-05T09:18:23.558Z,4.17
2019-04-05T09:22:27.658Z,3.83
2019-04-05T09:26:32.145Z,3.17
2019-04-05T09:30:36.139Z,3.50
2019-04-05T09:34:40.105Z,4.00
2019-04-05T09:38:44.227Z,3.10
2019-04-05T09:42:48.260Z,3.00
2019-04-05T09:46:52.348Z,2.87
2019-04-05T09:50:56.521Z,2.93
2019-04-05T09:55:00.500Z,3.53
2019-04-05T09:59:04.498Z,2.73
2019-04-05T10:03:09.552Z,4.00
2019-04-05T10:07:13.731Z,4.70
2019-04-05T10:11:17.874Z,3.50
2019-04-05T10:15:22.106Z,4.17
2019-04-05T10:19:26.377Z,4.07
2019-04-05T10:23:33.066Z,5.80
2019-04-05T10:27:37.243Z,4.20
2019-04-05T10:31:41.201Z,4.00
2019-04-05T10:35:45.515Z,3.77
2019-04-05T10:39:49.654Z,4.50
2019-04-05T10:43:53.666Z,4.03
2019-04-05T10:47:57.707Z,2.67
2019-04-05T10:52:01.756Z,3.57
2019-04-05T10:56:07.515Z,3.33
2019-04-05T11:00:12.749Z,2.90
2019-04-05T11:04:16.939Z,2.50
2019-04-05T11:08:21.230Z,2.87
2019-04-05T11:12:25.218Z,2.93
2019-04-05T11:16:29.329Z,2.73
2019-04-05T11:20:33.401Z,2.50
2019-04-05T11:24:37.668Z,2.87
2019-04-05T11:28:41.731Z,2.47
2019-04-05T11:32:46.091Z,3.23
2019-04-05T11:36:51.486Z,3.13
2019-04-05T11:40:56.114Z,2.90
2019-04-05T11:45:00.177Z,3.70
2019-04-05T11:49:04.473Z,3.63
2019-04-05T11:53:08.692Z,4.43
2019-04-05T11:57:12.738Z,4.50
2019-04-05T12:01:23.495Z,3.77
2019-04-05T12:05:29.053Z,3.97
2019-04-05T12:09:33.137Z,3.63
2019-04-05T12:13:37.122Z,3.73
2019-04-05T12:17:41.067Z,2.77
2019-04-05T12:21:46.282Z,3.77
2019-04-05T12:25:50.435Z,3.87
2019-04-05T12:29:54.507Z,3.20
2019-04-05T12:33:58.787Z,3.27
2019-04-05T12:38:06.948Z,3.57
2019-04-05T12:42:12.240Z,4.27
2019-04-05T12:46:16.366Z,4.33
2019-04-05T12:50:20.654Z,4.70
2019-04-05T12:54:24.710Z,6.67
2019-04-05T12:58:28.864Z,4.53
2019-04-05T13:02:34.021Z,4.93
2019-04-05T13:06:38.415Z,4.37
2019-04-05T13:10:42.466Z,6.33
2019-04-05T13:14:46.470Z,6.23
2019-04-05T13:18:50.461Z,4.90
2019-04-05T13:22:54.464Z,4.60
2019-04-05T13:26:58.418Z,5.10
2019-04-05T13:31:02.527Z,5.07
2019-04-05T13:35:07.834Z,5.20
2019-04-05T13:39:11.751Z,5.17
2019-04-05T13:43:18.332Z,4.90
2019-04-05T13:47:22.282Z,5.20
2019-04-05T13:51:28.583Z,5.40
2019-04-05T13:55:32.053Z,6.33
2019-04-05T13:59:36.224Z,5.87
2019-04-05T14:03:40.364Z,5.20
2019-04-05T14:07:44.640Z,4.97
2019-04-05T14:11:48.780Z,5.40
2019-04-05T14:15:52.909Z,5.17
2019-04-05T14:19:56.787Z,14.93
2019-04-05T14:24:00.767Z,6.23
2019-04-05T14:28:05.392Z,5.17
2019-04-05T14:32:20.476Z,5.23
2019-04-05T14:36:15.712Z,6.57
2019-04-05T14:40:19.966Z,5.30
2019-04-05T14:44:24.026Z,6.47
2019-04-05T14:48:31.706Z,5.87
2019-04-05T14:52:35.221Z,5.50
2019-04-05T14:56:39.218Z,5.00
2019-04-05T15:00:44.434Z,6.13
2019-04-05T15:04:49.471Z,5.00
2019-04-05T15:08:53.771Z,6.07
2019-04-05T15:13:00.108Z,5.50
2019-04-05T15:17:03.522Z,5.10
2019-04-05T15:21:07.707Z,7.03
2019-04-05T15:25:11.702Z,5.63
2019-04-05T15:29:15.824Z,5.10
2019-04-05T15:33:19.869Z,4.77
2019-04-05T15:37:24.005Z,5.03
2019-04-05T15:41:29.222Z,4.70
2019-04-05T15:45:33.296Z,6.03
2019-04-05T15:49:37.282Z,5.30
2019-04-05T15:53:41.346Z,4.50
2019-04-05T15:57:45.530Z,4.53
2019-04-05T16:01:49.563Z,4.93
2019-04-05T16:05:53.498Z,6.07
2019-04-05T16:09:57.650Z,5.97
2019-04-05T16:14:02.008Z,4.93
2019-04-05T16:18:07.133Z,4.93
2019-04-05T16:22:11.132Z,5.13
2019-04-05T16:26:15.171Z,5.50
2019-04-05T16:30:19.313Z,4.57
2019-04-05T16:34:23.403Z,4.57
2019-04-05T16:38:27.511Z,4.67
2019-04-05T16:42:31.717Z,5.60
2019-04-05T16:46:35.988Z,4.97
2019-04-05T16:50:42.324Z,5.10
2019-04-05T16:54:45.663Z,4.90
2019-04-05T16:58:49.817Z,5.07
2019-04-05T17:02:54.033Z,5.27
2019-04-05T17:06:58.353Z,6.60
2019-04-05T17:11:02.554Z,4.90
2019-04-05T17:15:06.995Z,4.93
2019-04-05T17:19:11.352Z,4.97
2019-04-05T17:23:15.594Z,5.33
2019-04-05T17:27:19.646Z,5.63
2019-04-05T17:31:23.610Z,5.47
2019-04-05T17:35:27.694Z,6.30
2019-04-05T17:39:31.939Z,5.73
2019-04-05T17:43:36.273Z,5.60
2019-04-05T17:47:40.340Z,4.53
2019-04-05T17:51:45.635Z,5.50
2019-04-05T17:55:49.617Z,6.20
2019-04-05T17:59:53.695Z,5.20
2019-04-05T18:03:57.832Z,5.43
2019-04-05T18:08:01.826Z,5.10
2019-04-05T18:12:06.094Z,5.20
2019-04-05T18:16:10.086Z,5.07
2019-04-05T18:20:14.398Z,4.83
2019-04-05T18:24:18.422Z,5.93
2019-04-05T18:28:22.561Z,5.33
2019-04-05T18:32:26.839Z,5.10
2019-04-05T18:36:30.927Z,5.47
2019-04-05T18:40:40.314Z,6.13
2019-04-05T18:44:40.677Z,5.43
2019-04-05T18:48:44.715Z,4.80
2019-04-05T18:52:48.821Z,5.60
2019-04-05T18:56:52.956Z,5.33
2019-04-05T19:00:57.142Z,4.60
2019-04-05T19:05:01.131Z,4.93
2019-04-05T19:09:06.715Z,5.00
2019-04-05T19:13:11.371Z,4.33
2019-04-05T19:17:23.808Z,4.77
2019-04-05T19:21:21.413Z,4.30
2019-04-05T19:25:25.366Z,4.53
2019-04-05T19:29:30.491Z,4.17
2019-04-05T19:49:57.794Z,4.83
2019-04-05T19:54:01.851Z,4.50
2019-04-05T19:58:06.225Z,4.60
2019-04-05T20:02:10.184Z,4.80
2019-04-05T20:06:14.348Z,3.40
2019-04-05T20:10:18.582Z,3.67
2019-04-05T20:14:23.078Z,3.30
2019-04-05T20:18:27.067Z,2.77
2019-04-05T20:22:32.872Z,3.07
2019-04-05T20:26:36.993Z,2.67
2019-04-05T20:30:41.006Z,2.93
2019-04-05T20:34:45.069Z,2.90
2019-04-05T20:38:49.241Z,2.60
2019-04-05T20:42:54.833Z,3.17
2019-04-05T20:46:58.921Z,2.97
2019-04-05T20:51:02.919Z,3.20
2019-04-05T20:55:07.601Z,3.27
2019-04-05T20:59:11.634Z,3.13
2019-04-05T21:03:15.739Z,3.20
2019-04-05T21:07:19.661Z,2.80
2019-04-05T21:11:23.798Z,3.17
2019-04-05T21:15:27.927Z,3.30
2019-04-05T21:19:31.956Z,3.07
2019-04-05T21:23:36.056Z,3.30
2019-04-05T21:27:40.137Z,2.93
2019-04-05T21:31:44.025Z,3.43
2019-04-05T21:35:48.063Z,3.17
2019-04-05T21:39:52.251Z,3.40
2019-04-05T21:43:56.683Z,3.70
2019-04-05T21:48:00.684Z,3.17
2019-04-05T21:52:04.999Z,2.67
2019-04-05T21:56:09.044Z,2.80
2019-04-05T22:00:16.119Z,3.67
2019-04-05T22:04:20.982Z,2.53
2019-04-05T22:08:26.021Z,2.87
2019-04-05T22:12:30.050Z,3.10
2019-04-05T22:16:34.370Z,3.43
2019-04-05T22:20:38.370Z,3.20
2019-04-05T22:24:42.482Z,4.17
2019-04-05T22:28:46.504Z,3.60
2019-04-05T22:32:51.485Z,4.17
2019-04-05T22:36:55.486Z,4.30
2019-04-05T22:40:59.454Z,4.00
2019-04-05T22:45:03.805Z,4.00
2019-04-05T22:49:07.780Z,4.27
2019-04-05T22:53:11.870Z,3.57
2019-04-05T22:57:15.969Z,4.00
2019-04-05T23:01:19.983Z,3.93
2019-04-05T23:05:24.126Z,4.00
2019-04-05T23:09:28.466Z,4.30
2019-04-05T23:13:32.799Z,3.63
2019-04-05T23:17:36.934Z,3.67
2019-04-05T23:21:40.980Z,4.83
2019-04-05T23:25:45.079Z,4.63
2019-04-05T23:29:49.247Z,4.10
2019-04-05T23:33:53.306Z,4.13
2019-04-05T23:37:57.301Z,4.00
2019-04-05T23:42:01.329Z,4.17
2019-04-05T23:46:05.494Z,3.67
2019-04-05T23:50:09.603Z,4.77
2019-04-05T23:54:13.622Z,4.33
2019-04-05T23:58:17.800Z,4.23
